Time,TemperatureF,DewpointF,PressureIn,WindDirection,WindDirectionDegrees,WindSpeedMPH,WindSpeedGustMPH,Humidity,HourlyPrecipIn,Conditions,Clouds,dailyrainin,SoftwareType,DateUTC
2013-06-30 00:01:00,77.2,74.4,29.79,SW,229,25.0,35.0,91,0.01,,---,0.00,VWS V14.01,2013-06-30 04:01:00,
2013-06-30 00:02:00,77.2,74.4,29.80,SSW,213,25.0,42.0,91,0.01,,---,0.00,VWS V14.01,2013-06-30 04:02:00,
2013-06-30 00:07:00,77.0,74.2,29.79,SSW,200,28.0,42.0,91,0.01,,---,0.00,VWS V14.01,2013-06-30 04:07:00,
2013-06-30 00:12:00,76.3,73.8,29.79,SSW,208,29.0,42.0,92,0.02,,---,0.01,VWS V14.01,2013-06-30 04:12:00,
2013-06-30 00:17:00,76.0,73.8,29.79,SSW,203,20.0,42.0,93,0.02,,---,0.01,VWS V14.01,2013-06-30 04:17:00,
2013-06-30 00:22:00,76.0,74.2,29.80,SW,215,32.0,42.0,94,0.02,,---,0.01,VWS V14.01,2013-06-30 04:22:00,
2013-06-30 00:27:00,75.9,74.1,29.80,SW,227,22.0,42.0,94,0.03,,---,0.02,VWS V14.01,2013-06-30 04:27:00,
2013-06-30 00:32:00,74.8,72.6,29.80,SW,219,20.0,35.0,93,0.05,,---,0.04,VWS V14.01,2013-06-30 04:32:00,
2013-06-30 00:37:00,74.6,72.4,29.80,SW,232,16.0,35.0,93,0.07,,---,0.06,VWS V14.01,2013-06-30 04:37:00,
2013-06-30 00:42:00,75.1,73.3,29.80,SSW,211,19.0,35.0,94,0.08,,---,0.07,VWS V14.01,2013-06-30 04:42:00,
2013-06-30 00:47:00,75.3,73.5,29.81,SSW,205,26.0,35.0,94,0.08,,---,0.07,VWS V14.01,2013-06-30 04:47:00,
2013-06-30 00:52:00,75.5,74.0,29.80,SW,226,19.0,35.0,95,0.09,,---,0.08,VWS V14.01,2013-06-30 04:52:00,
2013-06-30 00:57:00,74.9,73.1,29.80,SW,220,26.0,35.0,94,0.10,,---,0.10,VWS V14.01,2013-06-30 04:57:00,
2013-06-30 01:02:00,74.7,73.2,29.79,SSW,211,15.0,27.0,95,0.12,,---,0.12,VWS V14.01,2013-06-30 05:02:00,
2013-06-30 01:07:00,74.8,73.3,29.79,SSW,207,9.0,27.0,95,0.15,,---,0.15,VWS V14.01,2013-06-30 05:07:00,
2013-06-30 01:12:00,74.6,73.1,29.79,SSW,196,13.0,27.0,95,0.15,,---,0.15,VWS V14.01,2013-06-30 05:12:00,
2013-06-30 01:17:00,74.9,73.4,29.78,SW,216,13.0,27.0,95,0.15,,---,0.15,VWS V14.01,2013-06-30 05:17:00,
2013-06-30 01:22:00,75.0,73.5,29.78,SSW,196,11.0,27.0,95,0.15,,---,0.15,VWS V14.01,2013-06-30 05:22:00,
2013-06-30 01:27:00,75.2,74.0,29.78,SSW,211,7.0,27.0,96,0.15,,---,0.15,VWS V14.01,2013-06-30 05:27:00,
2013-06-30 01:32:00,75.3,73.8,29.78,SSW,209,13.0,17.0,95,0.14,,---,0.16,VWS V14.01,2013-06-30 05:32:00,
2013-06-30 01:37:00,75.3,73.8,29.77,South,188,14.0,18.0,95,0.18,,---,0.20,VWS V14.01,2013-06-30 05:37:00,
2013-06-30 01:42:00,75.3,73.8,29.77,SSW,195,16.0,19.0,95,0.18,,---,0.20,VWS V14.01,2013-06-30 05:42:00,
2013-06-30 01:47:00,75.4,73.9,29.77,SSW,196,20.0,24.0,95,0.20,,---,0.22,VWS V14.01,2013-06-30 05:47:00,
2013-06-30 01:52:00,75.6,74.1,29.76,SSW,196,18.0,24.0,95,0.21,,---,0.23,VWS V14.01,2013-06-30 05:52:00,
2013-06-30 01:57:00,75.8,74.6,29.77,SSW,198,26.0,26.0,96,0.16,,---,0.26,VWS V14.01,2013-06-30 05:57:00,
2013-06-30 02:03:00,75.9,74.7,29.77,SSW,198,20.0,30.0,96,0.22,,---,0.32,VWS V14.01,2013-06-30 06:03:00,
2013-06-30 02:08:00,75.5,74.0,29.77,SSW,202,31.0,36.0,95,0.23,,---,0.33,VWS V14.01,2013-06-30 06:08:00,
2013-06-30 02:13:00,75.7,74.5,29.77,South,189,26.0,36.0,96,0.23,,---,0.33,VWS V14.01,2013-06-30 06:13:00,
2013-06-30 02:18:00,75.8,74.3,29.77,SSW,209,31.0,36.0,95,0.23,,---,0.33,VWS V14.01,2013-06-30 06:18:00,
2013-06-30 02:23:00,75.7,74.2,29.76,SSW,202,19.0,36.0,95,0.23,,---,0.33,VWS V14.01,2013-06-30 06:23:00,
2013-06-30 02:28:00,75.7,74.2,29.76,SSW,200,21.0,28.0,95,0.18,,---,0.33,VWS V14.01,2013-06-30 06:28:00,
2013-06-30 02:33:00,75.8,74.6,29.76,South,188,14.0,28.0,96,0.18,,---,0.33,VWS V14.01,2013-06-30 06:33:00,
2013-06-30 02:38:00,75.9,74.7,29.76,SSW,199,26.0,30.0,96,0.19,,---,0.34,VWS V14.01,2013-06-30 06:38:00,
2013-06-30 02:43:00,75.8,74.3,29.76,South,191,15.0,30.0,95,0.19,,---,0.34,VWS V14.01,2013-06-30 06:43:00,
2013-06-30 02:48:00,75.7,74.5,29.77,SSW,205,25.0,30.0,96,0.19,,---,0.34,VWS V14.01,2013-06-30 06:48:00,
2013-06-30 02:53:00,75.8,74.6,29.77,SSW,209,10.0,30.0,96,0.19,,---,0.34,VWS V14.01,2013-06-30 06:53:00,
2013-06-30 02:58:00,75.9,74.7,29.76,SW,219,13.0,13.0,96,0.08,,---,0.34,VWS V14.01,2013-06-30 06:58:00,
2013-06-30 03:03:00,76.1,74.9,29.76,SSW,208,13.0,21.0,96,0.08,,---,0.34,VWS V14.01,2013-06-30 07:03:00,
2013-06-30 03:08:00,76.4,75.2,29.76,SSW,213,13.0,26.0,96,0.08,,---,0.34,VWS V14.01,2013-06-30 07:08:00,
2013-06-30 03:13:00,76.6,75.4,29.76,SSW,202,14.0,26.0,96,0.08,,---,0.34,VWS V14.01,2013-06-30 07:13:00,
2013-06-30 03:18:00,76.7,75.2,29.76,SSW,203,17.0,26.0,95,0.08,,---,0.34,VWS V14.01,2013-06-30 07:18:00,
2013-06-30 03:23:00,76.7,75.2,29.76,SSW,202,21.0,26.0,95,0.08,,---,0.34,VWS V14.01,2013-06-30 07:23:00,
2013-06-30 03:28:00,76.9,75.4,29.76,SSW,200,17.0,17.0,95,0.01,,---,0.34,VWS V14.01,2013-06-30 07:28:00,
2013-06-30 03:33:00,77.1,75.6,29.76,SW,225,12.0,25.0,95,0.01,,---,0.34,VWS V14.01,2013-06-30 07:33:00,
2013-06-30 03:38:00,77.1,75.6,29.76,SSW,209,19.0,25.0,95,0.01,,---,0.34,VWS V14.01,2013-06-30 07:38:00,
2013-06-30 03:43:00,77.2,75.7,29.76,SW,220,19.0,25.0,95,0.01,,---,0.34,VWS V14.01,2013-06-30 07:43:00,
2013-06-30 03:48:00,77.2,75.7,29.76,SSW,212,17.0,25.0,95,0.01,,---,0.34,VWS V14.01,2013-06-30 07:48:00,
2013-06-30 03:53:00,77.2,75.3,29.76,South,189,21.0,25.0,94,0.01,,---,0.34,VWS V14.01,2013-06-30 07:53:00,
2013-06-30 03:58:00,76.9,75.1,29.76,SSW,209,12.0,18.0,94,0.00,,---,0.34,VWS V14.01,2013-06-30 07:58:00,
2013-06-30 04:03:00,76.7,74.8,29.76,SSW,207,13.0,24.0,94,0.00,,---,0.34,VWS V14.01,2013-06-30 08:03:00,
2013-06-30 04:08:00,76.6,75.1,29.76,SSW,202,13.0,24.0,95,0.00,,---,0.34,VWS V14.01,2013-06-30 08:08:00,
2013-06-30 04:13:00,76.6,75.1,29.76,SSW,213,19.0,24.0,95,0.00,,---,0.34,VWS V14.01,2013-06-30 08:13:00,
2013-06-30 04:18:00,76.7,75.2,29.76,SW,215,18.0,24.0,95,0.00,,---,0.34,VWS V14.01,2013-06-30 08:18:00,
2013-06-30 04:23:00,76.7,75.2,29.76,SSW,194,22.0,28.0,95,0.00,,---,0.34,VWS V14.01,2013-06-30 08:23:00,
2013-06-30 04:28:00,76.6,75.1,29.76,WSW,246,11.0,20.0,95,0.00,,---,0.34,VWS V14.01,2013-06-30 08:28:00,
2013-06-30 04:33:00,76.7,74.8,29.76,SSW,207,20.0,28.0,94,0.00,,---,0.34,VWS V14.01,2013-06-30 08:33:00,
2013-06-30 04:38:00,76.7,74.8,29.76,SSW,194,15.0,28.0,94,0.00,,---,0.34,VWS V14.01,2013-06-30 08:38:00,
2013-06-30 04:43:00,76.7,74.8,29.76,South,186,13.0,28.0,94,0.00,,---,0.34,VWS V14.01,2013-06-30 08:43:00,
2013-06-30 04:48:00,76.7,74.8,29.76,SSW,200,13.0,28.0,94,0.00,,---,0.34,VWS V14.01,2013-06-30 08:48:00,
2013-06-30 04:53:00,76.7,74.8,29.76,SSW,205,15.0,28.0,94,0.00,,---,0.34,VWS V14.01,2013-06-30 08:53:00,
2013-06-30 04:58:00,76.8,75.3,29.76,SSW,192,19.0,21.0,95,0.00,,---,0.34,VWS V14.01,2013-06-30 08:58:00,
2013-06-30 05:03:00,76.9,75.4,29.76,SSW,207,18.0,21.0,95,0.00,,---,0.34,VWS V14.01,2013-06-30 09:03:00,
2013-06-30 05:08:00,77.0,75.5,29.76,South,178,11.0,22.0,95,0.00,,---,0.34,VWS V14.01,2013-06-30 09:08:00,
2013-06-30 05:13:00,77.0,75.5,29.77,SSW,200,12.0,22.0,95,0.00,,---,0.34,VWS V14.01,2013-06-30 09:13:00,
2013-06-30 05:18:00,77.0,75.1,29.77,SSW,199,17.0,23.0,94,0.00,,---,0.34,VWS V14.01,2013-06-30 09:18:00,
2013-06-30 05:19:00,76.9,75.1,29.77,South,182,17.0,23.0,94,0.00,,---,0.34,VWS V14.01,2013-06-30 09:19:00,
2013-06-30 05:24:00,76.3,74.4,29.77,South,186,15.0,23.0,94,0.00,,---,0.34,VWS V14.01,2013-06-30 09:24:00,
2013-06-30 05:29:00,76.3,74.4,29.77,SW,215,16.0,21.0,94,0.00,,---,0.34,VWS V14.01,2013-06-30 09:29:00,
2013-06-30 05:34:00,76.3,74.4,29.78,SSW,207,22.0,28.0,94,0.00,,---,0.34,VWS V14.01,2013-06-30 09:34:00,
2013-06-30 05:39:00,75.7,73.8,29.78,SW,231,27.0,42.0,94,0.00,,---,0.34,VWS V14.01,2013-06-30 09:39:00,
2013-06-30 05:44:00,74.7,72.6,29.79,SSW,211,32.0,47.0,93,0.01,,---,0.35,VWS V14.01,2013-06-30 09:44:00,
2013-06-30 05:49:00,73.5,71.7,29.83,WSW,253,19.0,47.0,94,0.08,,---,0.42,VWS V14.01,2013-06-30 09:49:00,
2013-06-30 05:54:00,73.3,71.8,29.83,WNW,286,27.0,47.0,95,0.31,,---,0.65,VWS V14.01,2013-06-30 09:54:00,
2013-06-30 05:59:00,71.9,70.1,29.82,WSW,247,6.0,16.0,94,0.41,,---,0.75,VWS V14.01,2013-06-30 09:59:00,
2013-06-30 06:04:00,72.2,70.7,29.81,SSW,208,9.0,16.0,95,0.47,,---,0.81,VWS V14.01,2013-06-30 10:04:00,
2013-06-30 06:09:00,73.0,71.8,29.80,West,266,9.0,16.0,96,0.51,,---,0.85,VWS V14.01,2013-06-30 10:09:00,
2013-06-30 06:14:00,73.5,72.3,29.80,West,269,8.0,16.0,96,0.51,,---,0.85,VWS V14.01,2013-06-30 10:14:00,
2013-06-30 06:19:00,73.7,72.5,29.80,West,273,6.0,16.0,96,0.51,,---,0.85,VWS V14.01,2013-06-30 10:19:00,
2013-06-30 06:24:00,73.9,72.7,29.80,WNW,293,5.0,16.0,96,0.51,,---,0.85,VWS V14.01,2013-06-30 10:24:00,
2013-06-30 06:29:00,73.7,72.5,29.81,NW,307,4.0,5.0,96,0.51,,---,0.85,VWS V14.01,2013-06-30 10:29:00,
2013-06-30 06:34:00,73.4,72.2,29.81,NW,319,2.0,5.0,96,0.51,,---,0.85,VWS V14.01,2013-06-30 10:34:00,
2013-06-30 06:39:00,73.2,72.0,29.80,NW,319,1.0,5.0,96,0.51,,---,0.85,VWS V14.01,2013-06-30 10:39:00,
2013-06-30 06:44:00,73.2,72.0,29.81,NW,319,0.0,5.0,96,0.51,,---,0.85,VWS V14.01,2013-06-30 10:44:00,
2013-06-30 06:49:00,73.2,72.0,29.81,NW,319,1.0,5.0,96,0.51,,---,0.85,VWS V14.01,2013-06-30 10:49:00,
2013-06-30 06:54:00,73.2,72.0,29.81,NW,325,3.0,5.0,96,0.52,,---,0.86,VWS V14.01,2013-06-30 10:54:00,
2013-06-30 06:59:00,73.2,72.0,29.82,NW,326,5.0,5.0,96,0.14,,---,0.86,VWS V14.01,2013-06-30 10:59:00,
2013-06-30 07:04:00,73.3,72.1,29.82,NW,317,3.0,8.0,96,0.14,,---,0.86,VWS V14.01,2013-06-30 11:04:00,
2013-06-30 07:09:00,73.4,72.5,29.82,SW,225,3.0,8.0,97,0.14,,---,0.86,VWS V14.01,2013-06-30 11:09:00,
2013-06-30 07:14:00,73.5,72.6,29.82,SW,218,1.0,8.0,97,0.14,,---,0.86,VWS V14.01,2013-06-30 11:14:00,
2013-06-30 07:19:00,73.7,72.8,29.82,SW,218,0.0,8.0,97,0.14,,---,0.86,VWS V14.01,2013-06-30 11:19:00,
2013-06-30 07:24:00,73.9,73.0,29.82,SW,218,2.0,8.0,97,0.14,,---,0.86,VWS V14.01,2013-06-30 11:24:00,
2013-06-30 07:29:00,74.1,73.2,29.81,SW,218,0.0,2.0,97,0.01,,---,0.86,VWS V14.01,2013-06-30 11:29:00,
2013-06-30 07:34:00,74.2,73.3,29.82,SW,218,0.0,2.0,97,0.01,,---,0.86,VWS V14.01,2013-06-30 11:34:00,
2013-06-30 07:39:00,74.3,73.4,29.82,SW,218,0.0,4.0,97,0.01,,---,0.86,VWS V14.01,2013-06-30 11:39:00,
2013-06-30 07:44:00,74.4,73.5,29.82,SW,218,0.0,4.0,97,0.01,,---,0.86,VWS V14.01,2013-06-30 11:44:00,
2013-06-30 07:49:00,74.6,73.7,29.82,NW,317,4.0,4.0,97,0.01,,---,0.86,VWS V14.01,2013-06-30 11:49:00,
2013-06-30 07:54:00,74.6,73.7,29.82,NW,317,0.0,4.0,97,0.01,,---,0.86,VWS V14.01,2013-06-30 11:54:00,
2013-06-30 08:00:00,74.6,73.7,29.82,NW,317,0.0,0.0,97,0.00,,---,0.86,VWS V14.01,2013-06-30 12:00:00,
2013-06-30 08:05:00,74.7,73.8,29.82,NW,317,0.0,1.0,97,0.00,,---,0.86,VWS V14.01,2013-06-30 12:05:00,
2013-06-30 08:10:00,74.8,73.9,29.82,NW,317,1.0,3.0,97,0.00,,---,0.86,VWS V14.01,2013-06-30 12:10:00,
2013-06-30 08:15:00,74.9,74.0,29.82,NW,323,0.0,3.0,97,0.00,,---,0.86,VWS V14.01,2013-06-30 12:15:00,
2013-06-30 08:20:00,75.0,74.1,29.82,WSW,239,2.0,4.0,97,0.00,,---,0.86,VWS V14.01,2013-06-30 12:20:00,
2013-06-30 08:25:00,75.1,74.2,29.82,SW,233,3.0,6.0,97,0.00,,---,0.86,VWS V14.01,2013-06-30 12:25:00,
2013-06-30 08:30:00,75.5,74.6,29.83,SW,232,3.0,10.0,97,0.00,,---,0.86,VWS V14.01,2013-06-30 12:30:00,
2013-06-30 08:35:00,75.7,74.8,29.83,SW,228,4.0,10.0,97,0.00,,---,0.86,VWS V14.01,2013-06-30 12:35:00,
2013-06-30 08:40:00,75.9,75.0,29.82,SSW,207,3.0,10.0,97,0.00,,---,0.86,VWS V14.01,2013-06-30 12:40:00,
2013-06-30 08:45:00,76.1,75.2,29.82,SSW,211,5.0,10.0,97,0.00,,---,0.86,VWS V14.01,2013-06-30 12:45:00,
2013-06-30 08:50:00,76.2,75.3,29.82,SSW,211,4.0,10.0,97,0.00,,---,0.86,VWS V14.01,2013-06-30 12:50:00,
2013-06-30 08:55:00,76.2,75.3,29.82,SSW,211,1.0,10.0,97,0.00,,---,0.86,VWS V14.01,2013-06-30 12:55:00,
2013-06-30 09:00:00,76.2,75.3,29.82,SSW,211,0.0,2.0,97,0.00,,---,0.86,VWS V14.01,2013-06-30 13:00:00,
2013-06-30 09:05:00,76.2,75.3,29.82,SSW,211,0.0,2.0,97,0.00,,---,0.86,VWS V14.01,2013-06-30 13:05:00,
2013-06-30 09:10:00,76.4,75.8,29.82,SSW,211,2.0,4.0,98,0.00,,---,0.86,VWS V14.01,2013-06-30 13:10:00,
2013-06-30 09:15:00,76.7,76.1,29.82,SSW,211,0.0,4.0,98,0.00,,---,0.86,VWS V14.01,2013-06-30 13:15:00,
2013-06-30 09:20:00,77.0,76.4,29.82,SSW,211,4.0,4.0,98,0.00,,---,0.86,VWS V14.01,2013-06-30 13:20:00,
2013-06-30 09:25:00,77.1,76.2,29.82,SSW,211,0.0,4.0,97,0.00,,---,0.86,VWS V14.01,2013-06-30 13:25:00,
2013-06-30 09:30:00,77.3,76.4,29.82,SSE,150,2.0,3.0,97,0.00,,---,0.86,VWS V14.01,2013-06-30 13:30:00,
2013-06-30 09:35:00,77.3,76.4,29.82,SSE,160,1.0,3.0,97,0.00,,---,0.86,VWS V14.01,2013-06-30 13:35:00,
2013-06-30 09:40:00,77.5,76.6,29.82,SSE,157,5.0,5.0,97,0.00,,---,0.86,VWS V14.01,2013-06-30 13:40:00,
2013-06-30 09:45:00,77.2,76.3,29.82,South,178,4.0,6.0,97,0.00,,---,0.86,VWS V14.01,2013-06-30 13:45:00,
2013-06-30 09:50:00,77.1,76.2,29.82,South,175,3.0,7.0,97,0.00,,---,0.86,VWS V14.01,2013-06-30 13:50:00,
2013-06-30 09:55:00,77.0,76.1,29.83,SSW,203,14.0,15.0,97,0.00,,---,0.86,VWS V14.01,2013-06-30 13:55:00,
2013-06-30 10:00:00,74.5,72.7,29.83,SW,217,30.0,37.0,94,0.11,,---,0.97,VWS V14.01,2013-06-30 14:00:00,
2013-06-30 10:05:00,72.9,71.4,29.83,SW,223,27.0,37.0,95,0.23,,---,1.09,VWS V14.01,2013-06-30 14:05:00,
2013-06-30 10:10:00,72.9,71.7,29.83,West,263,24.0,37.0,96,0.23,,---,1.09,VWS V14.01,2013-06-30 14:10:00,
2013-06-30 10:15:00,72.7,71.5,29.85,WSW,247,20.0,37.0,96,0.23,,---,1.09,VWS V14.01,2013-06-30 14:15:00,
2013-06-30 10:20:00,72.6,71.4,29.85,SW,226,14.0,37.0,96,0.23,,---,1.09,VWS V14.01,2013-06-30 14:20:00,
2013-06-30 10:25:00,72.5,71.3,29.84,West,270,15.0,37.0,96,0.25,,---,1.11,VWS V14.01,2013-06-30 14:25:00,
2013-06-30 10:30:00,72.4,71.2,29.83,West,263,8.0,13.0,96,0.26,,---,1.12,VWS V14.01,2013-06-30 14:30:00,
2013-06-30 10:35:00,72.3,71.1,29.83,SSW,202,11.0,13.0,96,0.28,,---,1.14,VWS V14.01,2013-06-30 14:35:00,
2013-06-30 10:40:00,72.4,71.2,29.84,SSW,212,16.0,16.0,96,0.29,,---,1.15,VWS V14.01,2013-06-30 14:40:00,
2013-06-30 10:45:00,72.7,71.5,29.84,SSW,205,15.0,16.0,96,0.29,,---,1.15,VWS V14.01,2013-06-30 14:45:00,
2013-06-30 10:50:00,73.0,71.8,29.84,SSW,210,12.0,16.0,96,0.29,,---,1.15,VWS V14.01,2013-06-30 14:50:00,
2013-06-30 10:55:00,73.1,71.9,29.84,SSW,211,9.0,17.0,96,0.29,,---,1.15,VWS V14.01,2013-06-30 14:55:00,
2013-06-30 11:01:00,73.4,72.2,29.84,SSW,207,11.0,13.0,96,0.28,,---,1.15,VWS V14.01,2013-06-30 15:01:00,
2013-06-30 11:06:00,73.8,72.9,29.84,SSW,211,7.0,14.0,97,0.28,,---,1.15,VWS V14.01,2013-06-30 15:06:00,
2013-06-30 11:11:00,73.9,73.0,29.84,SW,216,13.0,17.0,97,0.28,,---,1.15,VWS V14.01,2013-06-30 15:11:00,
2013-06-30 11:16:00,73.8,72.6,29.85,SW,227,12.0,17.0,96,0.28,,---,1.15,VWS V14.01,2013-06-30 15:16:00,
2013-06-30 11:21:00,74.3,73.1,29.85,SSW,198,10.0,17.0,96,0.28,,---,1.15,VWS V14.01,2013-06-30 15:21:00,
2013-06-30 11:26:00,74.5,73.3,29.85,SSW,209,11.0,17.0,96,0.28,,---,1.15,VWS V14.01,2013-06-30 15:26:00,
2013-06-30 11:31:00,74.6,73.1,29.85,SW,214,10.0,18.0,95,0.04,,---,1.15,VWS V14.01,2013-06-30 15:31:00,
2013-06-30 11:36:00,74.9,73.4,29.85,SSW,202,7.0,18.0,95,0.04,,---,1.15,VWS V14.01,2013-06-30 15:36:00,
2013-06-30 11:41:00,74.8,73.3,29.85,SW,227,5.0,18.0,95,0.04,,---,1.15,VWS V14.01,2013-06-30 15:41:00,
2013-06-30 11:46:00,74.8,73.3,29.85,SW,220,11.0,18.0,95,0.04,,---,1.15,VWS V14.01,2013-06-30 15:46:00,
2013-06-30 11:51:00,75.1,73.6,29.85,SSW,209,10.0,18.0,95,0.04,,---,1.15,VWS V14.01,2013-06-30 15:51:00,
2013-06-30 11:56:00,75.4,73.9,29.85,SSW,200,8.0,18.0,95,0.04,,---,1.15,VWS V14.01,2013-06-30 15:56:00,
2013-06-30 12:01:00,75.6,73.8,29.85,SSW,206,13.0,13.0,94,0.00,,---,1.15,VWS V14.01,2013-06-30 16:01:00,
2013-06-30 12:06:00,75.7,74.2,29.85,SSW,194,10.0,13.0,95,0.00,,---,1.15,VWS V14.01,2013-06-30 16:06:00,
2013-06-30 12:11:00,75.9,74.4,29.85,SSW,202,11.0,13.0,95,0.00,,---,1.15,VWS V14.01,2013-06-30 16:11:00,
2013-06-30 12:16:00,76.1,74.2,29.85,SSW,198,12.0,13.0,94,0.00,,---,1.15,VWS V14.01,2013-06-30 16:16:00,
2013-06-30 12:21:00,76.6,75.1,29.85,South,186,11.0,15.0,95,0.00,,---,1.15,VWS V14.01,2013-06-30 16:21:00,
2013-06-30 12:26:00,77.0,75.5,29.85,SSW,207,13.0,17.0,95,0.00,,---,1.15,VWS V14.01,2013-06-30 16:26:00,
2013-06-30 12:31:00,77.4,75.9,29.85,South,188,4.0,16.0,95,0.00,,---,1.15,VWS V14.01,2013-06-30 16:31:00,
2013-06-30 12:36:00,77.5,75.6,29.85,SSW,205,13.0,17.0,94,0.00,,---,1.15,VWS V14.01,2013-06-30 16:36:00,
2013-06-30 12:41:00,77.6,75.7,29.84,SSW,212,13.0,17.0,94,0.00,,---,1.15,VWS V14.01,2013-06-30 16:41:00,
2013-06-30 12:46:00,77.6,75.7,29.84,SSW,207,12.0,17.0,94,0.00,,---,1.15,VWS V14.01,2013-06-30 16:46:00,
2013-06-30 12:51:00,77.8,75.9,29.83,SSW,200,15.0,17.0,94,0.00,,---,1.15,VWS V14.01,2013-06-30 16:51:00,
2013-06-30 12:56:00,77.8,75.9,29.84,South,189,12.0,17.0,94,0.00,,---,1.15,VWS V14.01,2013-06-30 16:56:00,
2013-06-30 13:01:00,77.7,75.8,29.84,SSW,202,15.0,19.0,94,0.00,,---,1.15,VWS V14.01,2013-06-30 17:01:00,
2013-06-30 13:06:00,77.5,75.6,29.84,SSW,192,16.0,21.0,94,0.00,,---,1.15,VWS V14.01,2013-06-30 17:06:00,
2013-06-30 13:12:00,77.2,75.3,29.84,SSW,202,16.0,21.0,94,0.01,,---,1.16,VWS V14.01,2013-06-30 17:12:00,
2013-06-30 13:17:00,77.1,75.2,29.84,SSW,206,12.0,22.0,94,0.01,,---,1.16,VWS V14.01,2013-06-30 17:17:00,
2013-06-30 13:22:00,76.9,75.1,29.84,SSW,203,13.0,22.0,94,0.02,,---,1.17,VWS V14.01,2013-06-30 17:22:00,
2013-06-30 13:27:00,76.8,74.9,29.84,SSW,195,16.0,23.0,94,0.02,,---,1.17,VWS V14.01,2013-06-30 17:27:00,
2013-06-30 13:32:00,76.7,75.2,29.84,SSW,211,18.0,22.0,95,0.02,,---,1.17,VWS V14.01,2013-06-30 17:32:00,
2013-06-30 13:37:00,76.7,75.2,29.84,SW,229,20.0,24.0,95,0.04,,---,1.19,VWS V14.01,2013-06-30 17:37:00,
2013-06-30 13:42:00,73.8,71.7,29.84,SW,221,16.0,25.0,93,0.07,,---,1.22,VWS V14.01,2013-06-30 17:42:00,
2013-06-30 13:47:00,73.1,71.3,29.85,WSW,245,14.0,25.0,94,0.09,,---,1.24,VWS V14.01,2013-06-30 17:47:00,
2013-06-30 13:52:00,73.1,71.6,29.84,SSW,207,17.0,25.0,95,0.10,,---,1.25,VWS V14.01,2013-06-30 17:52:00,
2013-06-30 13:57:00,73.5,71.7,29.84,SSW,202,10.0,25.0,94,0.10,,---,1.25,VWS V14.01,2013-06-30 17:57:00,
2013-06-30 14:02:00,73.6,71.8,29.84,SW,223,17.0,19.0,94,0.10,,---,1.25,VWS V14.01,2013-06-30 18:02:00,
2013-06-30 14:07:00,73.9,72.1,29.84,SSW,206,18.0,22.0,94,0.10,,---,1.25,VWS V14.01,2013-06-30 18:07:00,
2013-06-30 14:12:00,74.2,72.4,29.84,SSW,211,8.0,22.0,94,0.10,,---,1.25,VWS V14.01,2013-06-30 18:12:00,
2013-06-30 14:17:00,74.6,72.8,29.84,SW,219,7.0,22.0,94,0.10,,---,1.25,VWS V14.01,2013-06-30 18:17:00,
2013-06-30 14:22:00,75.4,73.6,29.84,SSW,204,13.0,22.0,94,0.10,,---,1.25,VWS V14.01,2013-06-30 18:22:00,
2013-06-30 14:27:00,76.4,74.6,29.84,SSW,194,12.0,22.0,94,0.10,,---,1.25,VWS V14.01,2013-06-30 18:27:00,
2013-06-30 14:32:00,76.9,75.1,29.84,SSW,193,10.0,15.0,94,0.08,,---,1.25,VWS V14.01,2013-06-30 18:32:00,
2013-06-30 14:37:00,77.7,75.8,29.84,SSW,200,11.0,15.0,94,0.08,,---,1.25,VWS V14.01,2013-06-30 18:37:00,
2013-06-30 14:42:00,78.3,76.4,29.84,SSW,199,13.0,18.0,94,0.08,,---,1.25,VWS V14.01,2013-06-30 18:42:00,
2013-06-30 14:47:00,78.6,76.4,29.85,SSW,193,16.0,18.0,93,0.08,,---,1.25,VWS V14.01,2013-06-30 18:47:00,
2013-06-30 14:52:00,78.5,76.0,29.84,SSW,203,12.0,18.0,92,0.08,,---,1.25,VWS V14.01,2013-06-30 18:52:00,
2013-06-30 14:57:00,78.2,75.7,29.84,SSW,206,9.0,20.0,92,0.08,,---,1.25,VWS V14.01,2013-06-30 18:57:00,
2013-06-30 15:02:00,78.1,75.6,29.84,SSW,208,12.0,19.0,92,0.00,,---,1.25,VWS V14.01,2013-06-30 19:02:00,
2013-06-30 15:07:00,78.2,75.7,29.83,SSW,205,10.0,19.0,92,0.00,,---,1.25,VWS V14.01,2013-06-30 19:07:00,
2013-06-30 15:12:00,78.2,75.7,29.83,SSW,195,10.0,19.0,92,0.00,,---,1.25,VWS V14.01,2013-06-30 19:12:00,
2013-06-30 15:17:00,78.2,75.7,29.83,SSW,199,18.0,19.0,92,0.00,,---,1.25,VWS V14.01,2013-06-30 19:17:00,
2013-06-30 15:22:00,78.2,75.7,29.83,SSW,202,14.0,20.0,92,0.00,,---,1.25,VWS V14.01,2013-06-30 19:22:00,
2013-06-30 15:27:00,78.6,76.4,29.84,SSW,206,15.0,15.0,93,0.00,,---,1.25,VWS V14.01,2013-06-30 19:27:00,
2013-06-30 15:32:00,79.3,77.1,29.84,SSW,198,17.0,17.0,93,0.00,,---,1.25,VWS V14.01,2013-06-30 19:32:00,
2013-06-30 15:37:00,79.6,77.1,29.84,SSW,192,15.0,19.0,92,0.00,,---,1.25,VWS V14.01,2013-06-30 19:37:00,
2013-06-30 15:42:00,79.7,76.8,29.84,SSW,204,13.0,19.0,91,0.00,,---,1.25,VWS V14.01,2013-06-30 19:42:00,
2013-06-30 15:47:00,80.0,77.1,29.84,SSW,192,11.0,19.0,91,0.00,,---,1.25,VWS V14.01,2013-06-30 19:47:00,
2013-06-30 15:52:00,80.0,76.8,29.83,South,186,11.0,19.0,90,0.00,,---,1.25,VWS V14.01,2013-06-30 19:52:00,
2013-06-30 15:58:00,80.1,76.9,29.83,SSW,199,12.0,12.0,90,0.00,,---,1.25,VWS V14.01,2013-06-30 19:58:00,
2013-06-30 16:03:00,80.1,76.6,29.83,SW,222,11.0,14.0,89,0.00,,---,1.25,VWS V14.01,2013-06-30 20:03:00,
2013-06-30 16:08:00,79.8,75.9,29.83,SSW,200,12.0,14.0,88,0.00,,---,1.25,VWS V14.01,2013-06-30 20:08:00,
2013-06-30 16:13:00,79.9,76.0,29.83,SW,219,11.0,15.0,88,0.00,,---,1.25,VWS V14.01,2013-06-30 20:13:00,
2013-06-30 16:18:00,80.1,75.9,29.83,SSW,200,13.0,15.0,87,0.00,,---,1.25,VWS V14.01,2013-06-30 20:18:00,
2013-06-30 16:23:00,80.3,76.1,29.82,SW,215,10.0,15.0,87,0.00,,---,1.25,VWS V14.01,2013-06-30 20:23:00,
2013-06-30 16:28:00,80.2,75.6,29.82,SSW,211,6.0,9.0,86,0.00,,---,1.25,VWS V14.01,2013-06-30 20:28:00,
2013-06-30 16:33:00,79.9,75.3,29.83,SW,222,12.0,13.0,86,0.00,,---,1.25,VWS V14.01,2013-06-30 20:33:00,
2013-06-30 16:38:00,79.6,75.1,29.83,SSW,205,12.0,15.0,86,0.00,,---,1.25,VWS V14.01,2013-06-30 20:38:00,
2013-06-30 16:43:00,79.7,75.5,29.82,South,189,11.0,15.0,87,0.00,,---,1.25,VWS V14.01,2013-06-30 20:43:00,
2013-06-30 16:48:00,79.9,75.3,29.82,SSW,204,13.0,15.0,86,0.00,,---,1.25,VWS V14.01,2013-06-30 20:48:00,
2013-06-30 16:53:00,80.0,75.4,29.83,SSW,209,11.0,15.0,86,0.00,,---,1.25,VWS V14.01,2013-06-30 20:53:00,
2013-06-30 16:58:00,80.0,75.4,29.83,SSW,193,7.0,10.0,86,0.00,,---,1.25,VWS V14.01,2013-06-30 20:58:00,
2013-06-30 17:03:00,80.0,75.4,29.82,SSW,200,12.0,13.0,86,0.00,,---,1.25,VWS V14.01,2013-06-30 21:03:00,
2013-06-30 17:08:00,79.9,75.3,29.82,South,182,6.0,13.0,86,0.00,,---,1.25,VWS V14.01,2013-06-30 21:08:00,
2013-06-30 17:13:00,80.0,75.8,29.83,SW,217,10.0,14.0,87,0.00,,---,1.25,VWS V14.01,2013-06-30 21:13:00,
2013-06-30 17:18:00,80.1,75.5,29.83,SW,215,6.0,14.0,86,0.00,,---,1.25,VWS V14.01,2013-06-30 21:18:00,
2013-06-30 17:23:00,80.1,75.5,29.83,SSW,205,10.0,14.0,86,0.00,,---,1.25,VWS V14.01,2013-06-30 21:23:00,
2013-06-30 17:28:00,80.1,75.5,29.83,South,190,12.0,12.0,86,0.00,,---,1.25,VWS V14.01,2013-06-30 21:28:00,
2013-06-30 17:33:00,80.2,75.6,29.83,South,184,11.0,16.0,86,0.00,,---,1.25,VWS V14.01,2013-06-30 21:33:00,
2013-06-30 17:38:00,80.5,75.9,29.83,SSW,202,13.0,16.0,86,0.00,,---,1.25,VWS V14.01,2013-06-30 21:38:00,
2013-06-30 17:43:00,80.6,75.7,29.83,SSW,209,11.0,16.0,85,0.00,,---,1.25,VWS V14.01,2013-06-30 21:43:00,
2013-06-30 17:48:00,80.5,75.6,29.83,South,189,10.0,16.0,85,0.00,,---,1.25,VWS V14.01,2013-06-30 21:48:00,
2013-06-30 17:53:00,80.3,75.4,29.83,SSW,192,11.0,16.0,85,0.00,,---,1.25,VWS V14.01,2013-06-30 21:53:00,
2013-06-30 17:58:00,80.5,75.9,29.83,SSW,196,8.0,11.0,86,0.00,,---,1.25,VWS V14.01,2013-06-30 21:58:00,
2013-06-30 18:03:00,80.7,76.1,29.84,SSW,206,12.0,15.0,86,0.00,,---,1.25,VWS V14.01,2013-06-30 22:03:00,
2013-06-30 18:08:00,80.6,75.7,29.84,SSW,198,11.0,16.0,85,0.00,,---,1.25,VWS V14.01,2013-06-30 22:08:00,
2013-06-30 18:13:00,80.7,76.1,29.85,SSW,200,14.0,18.0,86,0.00,,---,1.25,VWS V14.01,2013-06-30 22:13:00,
2013-06-30 18:18:00,80.8,76.2,29.85,SSW,196,15.0,18.0,86,0.00,,---,1.25,VWS V14.01,2013-06-30 22:18:00,
2013-06-30 18:23:00,80.7,76.1,29.85,South,183,14.0,18.0,86,0.00,,---,1.25,VWS V14.01,2013-06-30 22:23:00,
2013-06-30 18:28:00,80.5,75.9,29.86,SSW,201,9.0,17.0,86,0.00,,---,1.25,VWS V14.01,2013-06-30 22:28:00,
2013-06-30 18:34:00,80.5,75.9,29.85,SSW,194,7.0,17.0,86,0.00,,---,1.25,VWS V14.01,2013-06-30 22:34:00,
2013-06-30 18:39:00,80.4,75.8,29.86,South,188,11.0,17.0,86,0.00,,---,1.25,VWS V14.01,2013-06-30 22:39:00,
2013-06-30 18:44:00,80.1,75.5,29.86,SSW,195,10.0,17.0,86,0.00,,---,1.25,VWS V14.01,2013-06-30 22:44:00,
2013-06-30 18:49:00,79.8,75.6,29.86,SSW,193,16.0,18.0,87,0.00,,---,1.25,VWS V14.01,2013-06-30 22:49:00,
2013-06-30 18:54:00,80.0,76.1,29.85,South,190,15.0,19.0,88,0.00,,---,1.25,VWS V14.01,2013-06-30 22:54:00,
2013-06-30 18:59:00,80.1,76.2,29.85,SSW,206,12.0,18.0,88,0.00,,---,1.25,VWS V14.01,2013-06-30 22:59:00,
2013-06-30 19:04:00,80.2,76.7,29.85,South,183,10.0,19.0,89,0.00,,---,1.25,VWS V14.01,2013-06-30 23:04:00,
2013-06-30 19:09:00,80.0,76.5,29.86,SSW,205,11.0,19.0,89,0.00,,---,1.25,VWS V14.01,2013-06-30 23:09:00,
2013-06-30 19:14:00,79.7,76.2,29.86,SSW,208,17.0,20.0,89,0.00,,---,1.25,VWS V14.01,2013-06-30 23:14:00,
2013-06-30 19:19:00,79.5,76.3,29.85,South,191,13.0,20.0,90,0.00,,---,1.25,VWS V14.01,2013-06-30 23:19:00,
2013-06-30 19:24:00,79.3,76.1,29.85,SSW,195,11.0,20.0,90,0.00,,---,1.25,VWS V14.01,2013-06-30 23:24:00,
2013-06-30 19:29:00,79.0,76.2,29.86,SSW,198,12.0,16.0,91,0.00,,---,1.25,VWS V14.01,2013-06-30 23:29:00,
2013-06-30 19:34:00,78.9,76.4,29.86,South,182,15.0,16.0,92,0.00,,---,1.25,VWS V14.01,2013-06-30 23:34:00,
2013-06-30 19:39:00,78.7,76.2,29.85,SSW,205,12.0,18.0,92,0.00,,---,1.25,VWS V14.01,2013-06-30 23:39:00,
2013-06-30 19:44:00,78.7,76.2,29.85,South,178,13.0,18.0,92,0.00,,---,1.25,VWS V14.01,2013-06-30 23:44:00,
2013-06-30 19:49:00,78.5,76.3,29.86,SSW,208,17.0,18.0,93,0.00,,---,1.25,VWS V14.01,2013-06-30 23:49:00,
2013-06-30 19:54:00,78.4,76.2,29.86,SSW,208,10.0,18.0,93,0.00,,---,1.25,VWS V14.01,2013-06-30 23:54:00,
2013-06-30 19:59:00,78.3,76.1,29.86,SSW,202,10.0,16.0,93,0.00,,---,1.25,VWS V14.01,2013-06-30 23:59:00,
2013-06-30 20:04:00,78.2,76.0,29.87,SSW,208,16.0,18.0,93,0.00,,---,1.25,VWS V14.01,2013-07-01 00:04:00,
2013-06-30 20:09:00,78.2,76.0,29.87,SSW,207,18.0,20.0,93,0.00,,---,1.25,VWS V14.01,2013-07-01 00:09:00,
2013-06-30 20:14:00,78.1,75.9,29.87,SW,217,16.0,20.0,93,0.00,,---,1.25,VWS V14.01,2013-07-01 00:14:00,
2013-06-30 20:20:00,78.1,76.2,29.87,SW,225,10.0,20.0,94,0.00,,---,1.25,VWS V14.01,2013-07-01 00:20:00,
2013-06-30 20:25:00,78.0,76.1,29.88,SSW,199,17.0,20.0,94,0.00,,---,1.25,VWS V14.01,2013-07-01 00:25:00,
2013-06-30 20:30:00,78.0,76.1,29.88,SSW,197,16.0,20.0,94,0.00,,---,1.25,VWS V14.01,2013-07-01 00:30:00,
2013-06-30 20:35:00,78.0,76.1,29.88,SSW,208,14.0,20.0,94,0.00,,---,1.25,VWS V14.01,2013-07-01 00:35:00,
2013-06-30 20:40:00,77.9,76.0,29.88,SSW,200,17.0,20.0,94,0.00,,---,1.25,VWS V14.01,2013-07-01 00:40:00,
2013-06-30 20:45:00,77.9,76.0,29.88,South,191,14.0,22.0,94,0.00,,---,1.25,VWS V14.01,2013-07-01 00:45:00,
2013-06-30 20:50:00,77.9,76.0,29.88,SSW,200,18.0,22.0,94,0.00,,---,1.25,VWS V14.01,2013-07-01 00:50:00,
2013-06-30 20:55:00,77.9,76.0,29.88,SSW,198,16.0,22.0,94,0.00,,---,1.25,VWS V14.01,2013-07-01 00:55:00,
2013-06-30 21:00:00,77.9,76.0,29.88,SSW,201,18.0,20.0,94,0.00,,---,1.25,VWS V14.01,2013-07-01 01:00:00,
2013-06-30 21:05:00,77.9,76.0,29.87,SSW,198,18.0,22.0,94,0.00,,---,1.25,VWS V14.01,2013-07-01 01:05:00,
2013-06-30 21:10:00,77.9,76.0,29.88,SSW,197,16.0,22.0,94,0.00,,---,1.25,VWS V14.01,2013-07-01 01:10:00,
2013-06-30 21:15:00,77.9,76.0,29.87,SSW,206,15.0,22.0,94,0.00,,---,1.25,VWS V14.01,2013-07-01 01:15:00,
2013-06-30 21:20:00,77.9,76.0,29.87,South,181,13.0,22.0,94,0.00,,---,1.25,VWS V14.01,2013-07-01 01:20:00,
2013-06-30 21:25:00,77.9,76.0,29.87,SSW,196,16.0,22.0,94,0.00,,---,1.25,VWS V14.01,2013-07-01 01:25:00,
2013-06-30 21:30:00,77.9,76.0,29.87,SSW,194,16.0,19.0,94,0.00,,---,1.25,VWS V14.01,2013-07-01 01:30:00,
2013-06-30 21:35:00,77.9,76.0,29.88,SSW,202,15.0,21.0,94,0.00,,---,1.25,VWS V14.01,2013-07-01 01:35:00,
2013-06-30 21:40:00,77.9,76.0,29.88,South,191,18.0,21.0,94,0.00,,---,1.25,VWS V14.01,2013-07-01 01:40:00,
2013-06-30 21:45:00,78.0,76.1,29.88,SSW,205,17.0,21.0,94,0.00,,---,1.25,VWS V14.01,2013-07-01 01:45:00,
2013-06-30 21:50:00,78.0,76.1,29.88,SSW,205,15.0,21.0,94,0.00,,---,1.25,VWS V14.01,2013-07-01 01:50:00,
2013-06-30 21:55:00,78.0,76.1,29.88,SSW,192,14.0,21.0,94,0.00,,---,1.25,VWS V14.01,2013-07-01 01:55:00,
2013-06-30 22:00:00,78.1,76.2,29.89,SSW,194,10.0,18.0,94,0.00,,---,1.25,VWS V14.01,2013-07-01 02:00:00,
2013-06-30 22:05:00,78.1,76.2,29.89,SSW,196,13.0,19.0,94,0.00,,---,1.25,VWS V14.01,2013-07-01 02:05:00,
2013-06-30 22:10:00,78.0,76.1,29.89,SSW,205,11.0,19.0,94,0.00,,---,1.25,VWS V14.01,2013-07-01 02:10:00,
2013-06-30 22:15:00,78.1,76.2,29.89,South,185,13.0,19.0,94,0.00,,---,1.25,VWS V14.01,2013-07-01 02:15:00,
2013-06-30 22:20:00,78.1,76.2,29.89,SSW,200,14.0,19.0,94,0.00,,---,1.25,VWS V14.01,2013-07-01 02:20:00,
2013-06-30 22:25:00,78.1,76.2,29.89,SSW,209,13.0,21.0,94,0.00,,---,1.25,VWS V14.01,2013-07-01 02:25:00,
2013-06-30 22:30:00,78.1,76.2,29.89,SW,228,15.0,19.0,94,0.00,,---,1.25,VWS V14.01,2013-07-01 02:30:00,
2013-06-30 22:35:00,78.1,76.2,29.89,SSW,207,16.0,20.0,94,0.00,,---,1.25,VWS V14.01,2013-07-01 02:35:00,
2013-06-30 22:40:00,78.2,76.3,29.90,SSW,205,11.0,20.0,94,0.00,,---,1.25,VWS V14.01,2013-07-01 02:40:00,
2013-06-30 22:45:00,78.2,76.3,29.90,SSW,196,15.0,20.0,94,0.00,,---,1.25,VWS V14.01,2013-07-01 02:45:00,
2013-06-30 22:50:00,78.1,76.2,29.90,South,188,14.0,20.0,94,0.00,,---,1.25,VWS V14.01,2013-07-01 02:50:00,
2013-06-30 22:55:00,78.2,76.3,29.90,SSW,208,12.0,22.0,94,0.00,,---,1.25,VWS V14.01,2013-07-01 02:55:00,
2013-06-30 23:00:00,78.2,76.3,29.90,SSW,200,15.0,20.0,94,0.00,,---,1.25,VWS V14.01,2013-07-01 03:00:00,
2013-06-30 23:05:00,78.2,76.7,29.89,SSW,192,12.0,20.0,95,0.00,,---,1.25,VWS V14.01,2013-07-01 03:05:00,
2013-06-30 23:10:00,78.2,76.7,29.89,SSW,198,15.0,20.0,95,0.00,,---,1.25,VWS V14.01,2013-07-01 03:10:00,
2013-06-30 23:15:00,78.2,76.7,29.89,SSW,210,17.0,22.0,95,0.00,,---,1.25,VWS V14.01,2013-07-01 03:15:00,
2013-06-30 23:20:00,78.2,76.7,29.89,SSW,194,13.0,22.0,95,0.00,,---,1.25,VWS V14.01,2013-07-01 03:20:00,
2013-06-30 23:26:00,78.2,76.7,29.89,SSW,198,15.0,22.0,95,0.00,,---,1.25,VWS V14.01,2013-07-01 03:26:00,
2013-06-30 23:31:00,78.1,76.6,29.89,SSW,200,17.0,17.0,95,0.00,,---,1.25,VWS V14.01,2013-07-01 03:31:00,
2013-06-30 23:36:00,78.1,76.6,29.89,SSW,206,15.0,19.0,95,0.00,,---,1.25,VWS V14.01,2013-07-01 03:36:00,
2013-06-30 23:41:00,78.1,76.6,29.89,SSW,207,15.0,20.0,95,0.00,,---,1.25,VWS V14.01,2013-07-01 03:41:00,
2013-06-30 23:46:00,78.1,76.6,29.88,SSW,201,17.0,20.0,95,0.00,,---,1.25,VWS V14.01,2013-07-01 03:46:00,
2013-06-30 23:51:00,78.1,76.6,29.88,South,187,16.0,20.0,95,0.00,,---,1.25,VWS V14.01,2013-07-01 03:51:00,
2013-06-30 23:56:00,78.0,76.5,29.88,SSW,207,11.0,20.0,95,0.00,,---,1.25,VWS V14.01,2013-07-01 03:56:00,